createdAt,value
2019-03-06T00:02:06.998Z,99408.09
2019-03-06T00:04:37.242Z,99408.97
2019-03-06T00:07:10.749Z,99408.45
2019-03-06T00:09:42.191Z,99406.83
2019-03-06T00:12:12.429Z,99421.02
2019-03-06T00:14:42.915Z,99421.44
2019-03-06T00:17:13.162Z,99425.31
2019-03-06T00:19:43.416Z,99433.05
2019-03-06T00:22:13.659Z,99426.52
2019-03-06T00:24:43.885Z,99433.84
2019-03-06T00:27:14.093Z,99444.09
2019-03-06T00:29:45.801Z,99448.83
2019-03-06T00:32:16.062Z,99446.36
2019-03-06T00:34:46.352Z,99449.14
2019-03-06T00:37:16.755Z,99457.35
2019-03-06T00:39:48.999Z,99447.44
2019-03-06T00:42:19.617Z,99460.63
2019-03-06T00:44:49.907Z,99461.55
2019-03-06T00:47:20.500Z,99466.70
2019-03-06T00:49:51.172Z,99469.06
2019-03-06T00:52:21.863Z,99470.29
2019-03-06T00:54:52.556Z,99473.35
2019-03-06T00:57:22.898Z,99486.92
2019-03-06T00:59:53.484Z,99485.28
2019-03-06T01:02:24.134Z,99477.08
2019-03-06T01:04:54.807Z,99494.76
2019-03-06T01:07:25.235Z,99488.94
2019-03-06T01:09:55.750Z,99487.67
2019-03-06T01:12:26.093Z,99495.17
2019-03-06T01:14:56.328Z,99507.17
2019-03-06T01:17:26.563Z,99498.23
2019-03-06T01:19:56.845Z,99502.59
2019-03-06T01:22:27.083Z,99508.34
2019-03-06T01:24:57.675Z,99508.75
2019-03-06T01:27:27.967Z,99513.02
2019-03-06T01:29:58.219Z,99506.89
2019-03-06T01:32:29.234Z,99506.69
2019-03-06T01:35:07.053Z,99517.31
2019-03-06T01:37:56.850Z,99519.23
2019-03-06T01:40:37.738Z,99524.91
2019-03-06T01:43:09.612Z,99520.53
2019-03-06T01:45:39.867Z,99536.56
2019-03-06T01:48:10.123Z,99538.33
2019-03-06T01:50:40.371Z,99537.73
2019-03-06T01:53:10.997Z,99546.04
2019-03-06T01:55:41.321Z,99551.69
2019-03-06T01:58:11.557Z,99544.39
2019-03-06T02:00:42.831Z,99556.72
2019-03-06T02:03:13.142Z,99554.06
2019-03-06T02:05:43.566Z,99557.63
2019-03-06T02:08:15.347Z,99566.63
2019-03-06T02:10:45.608Z,99564.45
2019-03-06T02:13:16.190Z,99580.22
2019-03-06T02:15:46.570Z,99576.94
2019-03-06T02:18:17.150Z,99580.08
2019-03-06T02:20:48.237Z,99577.55
2019-03-06T02:23:18.863Z,99578.46
2019-03-06T02:25:49.569Z,99587.11
2019-03-06T02:28:20.230Z,99592.64
2019-03-06T02:30:50.912Z,99592.41
2019-03-06T02:33:21.638Z,99600.30
2019-03-06T02:35:52.035Z,99603.91
2019-03-06T02:38:22.274Z,99607.80
2019-03-06T02:40:52.506Z,99607.41
2019-03-06T02:43:22.768Z,99616.91
2019-03-06T02:45:53.206Z,99634.19
2019-03-06T02:48:23.839Z,99647.18
2019-03-06T02:50:54.142Z,99658.77
2019-03-06T02:53:24.391Z,99661.00
2019-03-06T02:55:54.635Z,99658.36
2019-03-06T02:58:28.031Z,99677.53
2019-03-06T03:01:16.668Z,99674.70
2019-03-06T03:03:48.640Z,99670.95
2019-03-06T03:06:27.298Z,99686.41
2019-03-06T03:08:57.906Z,99694.27
2019-03-06T03:11:28.275Z,99703.00
2019-03-06T03:13:58.503Z,99718.58
2019-03-06T03:16:29.078Z,99704.76
2019-03-06T03:19:01.150Z,99715.98
2019-03-06T03:21:31.465Z,99721.30
2019-03-06T03:24:02.051Z,99727.01
2019-03-06T03:26:32.376Z,99732.27
2019-03-06T03:29:02.976Z,99733.60
2019-03-06T03:31:33.627Z,99741.73
2019-03-06T03:34:03.911Z,99747.45
2019-03-06T03:36:34.170Z,99757.02
2019-03-06T03:39:06.927Z,99764.84
2019-03-06T03:41:38.020Z,99768.38
2019-03-06T03:44:08.312Z,99769.70
2019-03-06T03:46:38.541Z,99774.56
2019-03-06T03:49:10.439Z,99794.45
2019-03-06T03:51:41.868Z,99792.77
2019-03-06T03:54:12.455Z,99799.27
2019-03-06T03:56:43.104Z,99807.44
2019-03-06T03:59:13.737Z,99810.87
2019-03-06T04:01:44.862Z,99815.99
2019-03-06T04:04:15.608Z,99816.87
2019-03-06T04:06:46.009Z,99823.77
2019-03-06T04:09:17.780Z,99830.66
2019-03-06T04:11:48.399Z,99843.61
2019-03-06T04:14:18.822Z,99842.80
2019-03-06T04:16:50.369Z,99844.17
2019-03-06T04:19:21.039Z,99848.94
2019-03-06T04:21:51.354Z,99852.81
2019-03-06T04:24:21.966Z,99849.81
2019-03-06T04:26:52.639Z,99861.44
2019-03-06T04:29:23.317Z,99863.58
2019-03-06T04:31:54.998Z,99879.91
2019-03-06T04:34:25.291Z,99880.82
2019-03-06T04:36:56.316Z,99892.90
2019-03-06T04:39:26.748Z,99891.23
2019-03-06T04:41:56.971Z,99898.16
2019-03-06T04:44:27.169Z,99895.25
2019-03-06T04:46:57.386Z,99902.56
2019-03-06T04:49:27.970Z,99909.02
2019-03-06T04:51:58.586Z,99911.19
2019-03-06T04:54:29.226Z,99910.30
2019-03-06T04:56:59.851Z,99911.17
2019-03-06T04:59:31.691Z,99915.86
2019-03-06T05:02:01.968Z,99914.63
2019-03-06T05:04:32.185Z,99926.22
2019-03-06T05:07:02.388Z,99932.23
2019-03-06T05:09:32.685Z,99930.07
2019-03-06T05:12:02.881Z,99933.05
2019-03-06T05:14:33.461Z,99931.30
2019-03-06T05:17:20.672Z,99933.87
2019-03-06T05:19:51.722Z,99931.26
2019-03-06T05:22:22.350Z,99926.52
2019-03-06T05:24:52.646Z,99942.02
2019-03-06T05:27:22.836Z,99944.16
2019-03-06T05:29:53.038Z,99948.02
2019-03-06T05:32:33.980Z,99957.52
2019-03-06T05:35:26.553Z,99964.38
2019-03-06T05:38:02.186Z,99972.96
2019-03-06T05:40:32.546Z,99978.50
2019-03-06T05:43:02.820Z,99981.98
2019-03-06T05:45:33.367Z,99984.51
2019-03-06T05:48:03.946Z,99996.13
2019-03-06T05:50:34.494Z,100001.28
2019-03-06T05:53:05.218Z,100003.00
2019-03-06T05:55:35.516Z,100009.93
2019-03-06T05:58:05.781Z,100017.69
2019-03-06T06:00:36.358Z,100025.46
2019-03-06T06:03:07.070Z,100036.22
2019-03-06T06:05:37.677Z,100044.80
2019-03-06T06:08:08.021Z,100051.63
2019-03-06T06:10:38.375Z,100061.96
2019-03-06T06:13:08.609Z,100059.82
2019-03-06T06:15:38.922Z,100068.44
2019-03-06T06:18:09.545Z,100074.07
2019-03-06T06:20:39.787Z,100067.17
2019-03-06T06:23:10.114Z,100068.45
2019-03-06T06:25:40.743Z,100066.69
2019-03-06T06:28:11.372Z,100064.55
2019-03-06T06:30:42.036Z,100075.26
2019-03-06T06:33:12.903Z,100090.30
2019-03-06T06:35:43.558Z,100086.00
2019-03-06T06:38:13.841Z,100092.46
2019-03-06T06:40:44.079Z,100096.77
2019-03-06T06:43:14.285Z,100101.91
2019-03-06T06:45:44.497Z,100103.61
2019-03-06T06:48:23.306Z,100107.48
2019-03-06T06:51:25.359Z,100107.09
2019-03-06T06:54:00.592Z,100110.14
2019-03-06T06:56:43.078Z,100117.02
2019-03-06T06:59:19.117Z,100121.73
2019-03-06T07:02:13.550Z,100129.88
2019-03-06T07:05:23.884Z,100133.75
2019-03-06T07:08:01.633Z,100141.92
2019-03-06T07:10:37.657Z,100144.03
2019-03-06T07:13:18.910Z,100150.03
2019-03-06T07:15:59.712Z,100156.07
2019-03-06T07:18:31.940Z,100161.63
2019-03-06T07:21:02.367Z,100168.39
2019-03-06T07:23:46.322Z,100165.31
2019-03-06T07:26:22.748Z,100168.75
2019-03-06T07:28:54.693Z,100172.19
2019-03-06T07:31:29.558Z,100178.22
2019-03-06T07:34:01.467Z,100180.78
2019-03-06T07:36:45.308Z,100184.19
2019-03-06T07:39:20.762Z,100185.41
2019-03-06T07:41:55.448Z,100187.55
2019-03-06T07:44:30.786Z,100186.70
2019-03-06T07:47:14.997Z,100196.48
2019-03-06T07:49:53.887Z,100202.47
2019-03-06T07:52:25.768Z,100210.63
2019-03-06T07:54:57.686Z,100217.95
2019-03-06T07:57:33.319Z,100221.80
2019-03-06T08:00:09.840Z,100225.72
2019-03-06T08:03:02.736Z,100227.02
2019-03-06T08:05:33.385Z,100227.89
2019-03-06T08:08:03.663Z,100232.58
2019-03-06T08:10:34.061Z,100233.39
2019-03-06T08:13:06.338Z,100247.55
2019-03-06T08:15:38.277Z,100247.03
2019-03-06T08:18:25.475Z,100250.05
2019-03-06T08:21:00.331Z,100259.08
2019-03-06T08:23:35.080Z,100264.72
2019-03-06T08:26:08.029Z,100262.06
2019-03-06T08:28:38.654Z,100263.33
2019-03-06T08:31:19.611Z,100261.61
2019-03-06T08:33:50.238Z,100262.88
2019-03-06T08:36:20.958Z,100256.79
2019-03-06T08:38:52.284Z,100262.27
2019-03-06T08:41:27.858Z,100259.70
2019-03-06T08:44:00.018Z,100258.34
2019-03-06T08:46:44.019Z,100261.84
2019-03-06T08:49:22.469Z,100265.67
2019-03-06T08:52:03.702Z,100267.09
2019-03-06T08:54:41.884Z,100268.11
2019-03-06T08:57:15.763Z,100277.22
2019-03-06T08:59:47.810Z,100279.72
2019-03-06T09:02:28.162Z,100273.19
2019-03-06T09:05:12.812Z,100288.28
2019-03-06T09:07:53.587Z,100281.64
2019-03-06T09:10:26.033Z,100285.66
2019-03-06T09:13:00.559Z,100289.06
2019-03-06T09:15:50.971Z,100285.55
2019-03-06T09:18:36.034Z,100290.70
2019-03-06T09:21:23.792Z,100293.11
2019-03-06T09:24:11.298Z,100301.62
2019-03-06T09:26:59.746Z,100301.09
2019-03-06T09:29:34.627Z,100298.73
2019-03-06T09:32:10.238Z,100311.26
2019-03-06T09:34:42.173Z,100317.81
2019-03-06T09:37:14.547Z,100311.44
2019-03-06T09:39:46.570Z,100311.87
2019-03-06T09:42:22.332Z,100314.81
2019-03-06T09:45:11.899Z,100320.33
2019-03-06T09:47:44.337Z,100320.10
2019-03-06T09:50:16.485Z,100331.84
2019-03-06T09:52:56.277Z,100330.45
2019-03-06T09:55:43.562Z,100333.50
2019-03-06T09:58:31.373Z,100332.69
2019-03-06T10:01:15.771Z,100337.34
2019-03-06T10:03:57.298Z,100337.81
2019-03-06T10:06:35.270Z,100343.92
2019-03-06T10:09:20.840Z,100339.95
2019-03-06T10:11:58.630Z,100341.92
2019-03-06T10:14:46.827Z,100354.09
2019-03-06T10:17:21.220Z,100366.36
2019-03-06T10:19:58.388Z,100363.22
2019-03-06T10:22:28.633Z,100362.72
2019-03-06T10:24:59.222Z,100370.11
2019-03-06T10:27:29.872Z,100366.31
2019-03-06T10:30:00.580Z,100362.91
2019-03-06T10:32:31.310Z,100360.48
2019-03-06T10:35:02.883Z,100371.06
2019-03-06T10:37:34.537Z,100373.61
2019-03-06T10:40:09.498Z,100374.91
2019-03-06T10:42:40.232Z,100387.34
2019-03-06T10:45:12.050Z,100381.36
2019-03-06T10:47:42.632Z,100385.02
2019-03-06T10:50:27.528Z,100394.69
2019-03-06T10:52:56.011Z,100383.20
2019-03-06T10:55:27.961Z,100390.72
2019-03-06T10:57:59.336Z,100385.10
2019-03-06T11:00:38.103Z,100388.03
2019-03-06T11:03:09.298Z,100389.16
2019-03-06T11:05:39.923Z,100389.23
2019-03-06T11:08:10.385Z,100386.77
2019-03-06T11:10:42.241Z,100382.83
2019-03-06T11:13:13.571Z,100383.30
2019-03-06T11:15:55.071Z,100387.23
2019-03-06T11:18:18.153Z,100380.78
2019-03-06T11:20:52.904Z,100386.22
2019-03-06T11:23:24.929Z,100391.41
2019-03-06T11:25:56.946Z,100392.18
2019-03-06T11:28:29.186Z,100384.29
2019-03-06T11:31:00.840Z,100376.19
2019-03-06T11:33:32.340Z,100372.39
2019-03-06T11:36:02.622Z,100382.95
2019-03-06T11:38:33.519Z,100374.50
2019-03-06T11:41:06.346Z,100374.98
2019-03-06T11:43:37.496Z,100373.63
2019-03-06T11:46:11.225Z,100383.99
2019-03-06T11:48:41.318Z,100374.97
2019-03-06T11:51:17.473Z,100382.56
2019-03-06T11:53:47.764Z,100371.89
2019-03-06T11:56:17.999Z,100380.85
2019-03-06T11:58:48.908Z,100383.35
2019-03-06T12:01:21.374Z,100383.13
2019-03-06T12:03:52.743Z,100378.36
2019-03-06T12:06:24.758Z,100384.93
2019-03-06T12:08:55.455Z,100389.62
2019-03-06T12:11:27.145Z,100389.70
2019-03-06T12:13:57.928Z,100393.02
2019-03-06T12:16:31.659Z,100390.59
2019-03-06T12:19:00.951Z,100381.78
2019-03-06T12:21:31.768Z,100380.41
2019-03-06T12:24:03.419Z,100377.84
2019-03-06T12:26:33.789Z,100375.11
2019-03-06T12:29:04.020Z,100367.89
2019-03-06T12:31:35.706Z,100374.41
2019-03-06T12:34:05.899Z,100377.42
2019-03-06T12:36:36.505Z,100375.70
2019-03-06T12:39:07.266Z,100379.49
2019-03-06T12:41:39.482Z,100365.91
2019-03-06T12:44:10.722Z,100373.67
2019-03-06T12:46:41.809Z,100374.42
2019-03-06T12:49:12.532Z,100368.03
2019-03-06T12:51:43.632Z,100366.41
2019-03-06T12:54:13.990Z,100376.02
2019-03-06T12:56:44.260Z,100362.66
2019-03-06T12:59:14.478Z,100361.25
2019-03-06T13:01:45.078Z,100345.09
2019-03-06T13:04:15.761Z,100354.95
2019-03-06T13:06:46.402Z,100356.14
2019-03-06T13:09:18.416Z,100354.12
2019-03-06T13:11:48.878Z,100343.39
2019-03-06T13:14:19.267Z,100347.16
2019-03-06T13:16:49.922Z,100341.63
2019-03-06T13:19:20.144Z,100335.80
2019-03-06T13:21:50.813Z,100341.24
2019-03-06T13:24:21.490Z,100345.84
2019-03-06T13:26:51.846Z,100339.02
2019-03-06T13:29:22.155Z,100342.87
2019-03-06T13:31:52.421Z,100341.64
2019-03-06T13:34:24.305Z,100344.52
2019-03-06T13:36:56.426Z,100348.43
2019-03-06T13:39:27.332Z,100342.31
2019-03-06T13:41:57.828Z,100351.36
2019-03-06T13:44:28.051Z,100343.52
2019-03-06T13:46:58.272Z,100335.20
2019-03-06T13:49:30.034Z,100345.67
2019-03-06T13:52:00.622Z,100344.41
2019-03-06T13:54:33.111Z,100346.80
2019-03-06T13:57:03.856Z,100285.13
2019-03-06T13:59:34.137Z,100329.56
2019-03-06T14:02:04.769Z,100331.19
2019-03-06T14:04:35.362Z,100339.52
2019-03-06T14:07:07.008Z,100335.23
2019-03-06T14:09:37.241Z,100343.30
2019-03-06T14:12:07.465Z,100344.05
2019-03-06T14:14:38.060Z,100348.51
2019-03-06T14:17:09.307Z,100347.86
2019-03-06T14:19:39.882Z,100344.23
2019-03-06T14:22:10.262Z,100340.36
2019-03-06T14:24:42.022Z,100343.94
2019-03-06T14:27:12.281Z,100332.64
2019-03-06T14:29:44.191Z,100329.15
2019-03-06T14:32:15.489Z,100335.83
2019-03-06T14:34:46.134Z,100329.09
2019-03-06T14:37:16.866Z,100329.64
2019-03-06T14:39:47.435Z,100327.23
2019-03-06T14:42:18.305Z,100329.78
2019-03-06T14:44:49.021Z,100332.23
2019-03-06T14:47:20.298Z,100336.77
2019-03-06T14:49:50.522Z,100329.05
2019-03-06T14:52:22.307Z,100326.23
2019-03-06T14:54:52.526Z,100318.62
2019-03-06T14:57:23.198Z,100327.80
2019-03-06T14:59:53.958Z,100325.33
2019-03-06T15:02:24.179Z,100324.58
2019-03-06T15:04:54.919Z,100322.03
2019-03-06T15:07:25.590Z,100320.38
2019-03-06T15:09:55.950Z,100320.45
2019-03-06T15:12:26.160Z,100308.48
2019-03-06T15:14:56.397Z,100314.26
2019-03-06T15:17:30.728Z,100311.37
2019-03-06T15:20:00.778Z,100309.68
2019-03-06T15:22:38.398Z,100296.82
2019-03-06T15:25:05.457Z,100296.56
2019-03-06T15:27:36.237Z,100297.16
2019-03-06T15:30:11.688Z,100296.51
2019-03-06T15:32:42.474Z,100303.53
2019-03-06T15:35:13.877Z,100297.98
2019-03-06T15:37:44.591Z,100290.77
2019-03-06T15:40:22.721Z,100293.11
2019-03-06T15:42:53.839Z,100288.97
2019-03-06T15:45:27.144Z,100289.13
2019-03-06T15:47:59.446Z,100285.88
2019-03-06T15:50:31.467Z,100288.16
2019-03-06T15:53:01.985Z,100292.70
2019-03-06T15:55:33.353Z,100289.77
2019-03-06T15:58:05.761Z,100296.86
2019-03-06T16:00:46.211Z,100290.21
2019-03-06T16:03:13.373Z,100294.66
2019-03-06T16:05:45.355Z,100294.89
2019-03-06T16:08:16.672Z,100288.94
2019-03-06T16:10:49.278Z,100285.73
2019-03-06T16:13:19.577Z,100280.78
2019-03-06T16:15:49.952Z,100285.66
2019-03-06T16:18:20.322Z,100284.09
2019-03-06T16:20:50.606Z,100276.47
2019-03-06T16:23:21.760Z,100273.09
2019-03-06T16:25:52.442Z,100275.66
2019-03-06T16:28:23.146Z,100271.45
2019-03-06T16:30:53.919Z,100270.23
2019-03-06T16:33:25.346Z,100275.05
2019-03-06T16:35:55.819Z,100277.84
2019-03-06T16:38:26.246Z,100286.11
2019-03-06T16:41:00.870Z,100283.22
2019-03-06T16:43:32.020Z,100281.11
2019-03-06T16:46:05.678Z,100276.06
2019-03-06T16:48:36.650Z,100273.55
2019-03-06T16:51:09.476Z,100267.55
2019-03-06T16:53:39.924Z,100279.65
2019-03-06T16:56:11.200Z,100279.27
2019-03-06T16:58:42.015Z,100279.73
2019-03-06T17:01:14.581Z,100281.50
2019-03-06T17:03:45.320Z,100273.39
2019-03-06T17:06:17.998Z,100271.22
2019-03-06T17:08:48.847Z,100270.80
2019-03-06T17:11:22.103Z,100266.55
2019-03-06T17:13:53.431Z,100274.81
2019-03-06T17:16:24.128Z,100273.52
2019-03-06T17:18:54.686Z,100267.13
2019-03-06T17:21:25.371Z,100268.09
2019-03-06T17:23:56.216Z,100268.54
2019-03-06T17:26:26.535Z,100262.98
2019-03-06T17:28:57.213Z,100262.99
2019-03-06T17:31:27.629Z,100265.17
2019-03-06T17:33:57.844Z,100264.30
2019-03-06T17:36:28.471Z,100255.72
2019-03-06T17:38:58.962Z,100251.00
2019-03-06T17:41:33.187Z,100263.09
2019-03-06T17:44:04.898Z,100252.75
2019-03-06T17:46:36.830Z,100251.89
2019-03-06T17:49:09.005Z,100250.16
2019-03-06T17:51:39.818Z,100247.58
2019-03-06T17:54:10.242Z,100245.94
2019-03-06T17:56:40.741Z,100244.67
2019-03-06T17:59:10.985Z,100249.42
2019-03-06T18:01:41.195Z,100248.14
2019-03-06T18:04:13.077Z,100246.41
2019-03-06T18:06:43.317Z,100247.29
2019-03-06T18:09:14.884Z,100238.22
2019-03-06T18:11:45.780Z,100244.22
2019-03-06T18:14:16.806Z,100229.59
2019-03-06T18:16:47.446Z,100230.02
2019-03-06T18:19:18.014Z,100235.66
2019-03-06T18:21:48.278Z,100231.80
2019-03-06T18:24:18.524Z,100231.82
2019-03-06T18:26:49.432Z,100223.19
2019-03-06T18:29:20.055Z,100229.65
2019-03-06T18:31:50.615Z,100226.22
2019-03-06T18:34:21.256Z,100238.73
2019-03-06T18:36:51.982Z,100228.84
2019-03-06T18:39:22.819Z,100227.56
2019-03-06T18:41:53.980Z,100220.30
2019-03-06T18:44:24.321Z,100208.70
2019-03-06T18:46:55.094Z,100222.03
2019-03-06T18:49:25.745Z,100218.16
2019-03-06T18:51:56.452Z,100223.73
2019-03-06T18:54:26.846Z,100221.96
2019-03-06T18:56:57.469Z,100221.17
2019-03-06T18:59:28.127Z,100215.14
2019-03-06T19:02:01.367Z,100208.68
2019-03-06T19:04:31.775Z,100203.98
2019-03-06T19:07:01.987Z,100196.23
2019-03-06T19:09:32.490Z,100194.52
2019-03-06T19:12:04.607Z,100200.55
2019-03-06T19:14:35.150Z,100193.63
2019-03-06T19:17:05.586Z,100195.36
2019-03-06T19:19:37.420Z,100189.36
2019-03-06T19:22:08.270Z,100186.77
2019-03-06T19:24:38.517Z,100182.90
2019-03-06T19:27:08.806Z,100181.61
2019-03-06T19:29:39.088Z,100180.77
2019-03-06T19:32:09.351Z,100174.77
2019-03-06T19:34:39.567Z,100164.48
2019-03-06T19:37:10.288Z,100172.23
2019-03-06T19:39:40.610Z,100163.13
2019-03-06T19:42:11.228Z,100155.83
2019-03-06T19:44:42.159Z,100152.81
2019-03-06T19:47:12.442Z,100152.87
2019-03-06T19:49:43.139Z,100150.23
2019-03-06T19:52:13.360Z,100138.69
2019-03-06T19:54:43.782Z,100145.58
2019-03-06T19:57:14.008Z,100138.70
2019-03-06T19:59:44.265Z,100146.02
2019-03-06T20:02:14.543Z,100137.00
2019-03-06T20:04:44.784Z,100139.16
2019-03-06T20:07:15.011Z,100144.75
2019-03-06T20:09:45.542Z,100147.33
2019-03-06T20:12:15.782Z,100149.09
2019-03-06T20:14:46.365Z,100150.81
2019-03-06T20:17:17.609Z,100153.81
2019-03-06T20:19:49.291Z,100137.02
2019-03-06T20:22:20.039Z,100121.57
2019-03-06T20:24:50.345Z,100119.85
2019-03-06T20:27:20.624Z,100122.43
2019-03-06T20:29:51.191Z,100124.14
2019-03-06T20:32:21.834Z,100122.44
2019-03-06T20:34:52.587Z,100110.41
2019-03-06T20:37:22.879Z,100103.09
2019-03-06T20:39:53.099Z,100108.67
2019-03-06T20:42:23.703Z,100112.55
2019-03-06T20:44:55.645Z,100097.07
2019-03-06T20:47:25.888Z,100096.63
2019-03-06T20:49:57.076Z,100094.91
2019-03-06T20:52:27.702Z,100103.52
2019-03-06T20:54:59.063Z,100090.63
2019-03-06T20:57:29.320Z,100101.81
2019-03-06T20:59:59.562Z,100085.05
2019-03-06T21:02:30.194Z,100079.04
2019-03-06T21:05:00.832Z,100079.91
2019-03-06T21:07:32.223Z,100070.45
2019-03-06T21:10:02.900Z,100071.73
2019-03-06T21:12:35.369Z,100068.30
2019-03-06T21:15:10.666Z,100066.58
2019-03-06T21:17:40.947Z,100061.42
2019-03-06T21:20:18.885Z,100058.84
2019-03-06T21:22:49.100Z,100058.88
2019-03-06T21:25:21.862Z,100059.70
2019-03-06T21:27:52.702Z,100052.01
2019-03-06T21:30:31.231Z,100062.32
2019-03-06T21:33:01.910Z,100048.97
2019-03-06T21:35:32.224Z,100058.88
2019-03-06T21:38:02.512Z,100057.59
2019-03-06T21:40:33.054Z,100050.30
2019-03-06T21:43:03.305Z,100044.28
2019-03-06T21:45:34.016Z,100052.01
2019-03-06T21:48:05.548Z,100048.97
2019-03-06T21:50:37.526Z,100044.23
2019-03-06T21:53:08.011Z,100040.84
2019-03-06T21:55:38.256Z,100037.40
2019-03-06T21:58:08.531Z,100039.12
2019-03-06T22:00:38.730Z,100036.11
2019-03-06T22:03:09.173Z,100027.09
2019-03-06T22:05:39.701Z,100028.81
2019-03-06T22:08:10.759Z,100016.78
2019-03-06T22:10:41.105Z,100019.80
2019-03-06T22:13:11.420Z,100012.49
2019-03-06T22:15:41.639Z,100016.78
2019-03-06T22:18:11.975Z,100013.35
2019-03-06T22:20:43.138Z,100005.20
2019-03-06T22:23:13.802Z,100003.04
2019-03-06T22:25:44.473Z,99999.17
2019-03-06T22:28:14.835Z,99998.73
2019-03-06T22:30:45.397Z,99991.88
2019-03-06T22:33:15.730Z,99996.16
2019-03-06T22:35:46.600Z,99985.85
2019-03-06T22:38:16.899Z,99988.42
2019-03-06T22:40:47.107Z,99984.52
2019-03-06T22:43:17.429Z,99982.78
2019-03-06T22:45:49.063Z,99975.92
2019-03-06T22:48:19.899Z,99983.22
2019-03-06T22:50:50.122Z,99978.96
2019-03-06T22:53:20.353Z,99978.48
2019-03-06T22:55:50.910Z,99969.89
2019-03-06T22:58:21.193Z,99961.30
2019-03-06T23:00:56.010Z,99951.47
2019-03-06T23:03:28.137Z,99950.56
2019-03-06T23:05:58.957Z,99952.29
2019-03-06T23:08:29.260Z,99947.18
2019-03-06T23:10:59.858Z,99940.69
2019-03-06T23:13:30.556Z,99938.16
2019-03-06T23:16:01.241Z,99927.42
2019-03-06T23:18:31.882Z,99930.41
2019-03-06T23:21:03.579Z,99911.95
2019-03-06T23:23:33.863Z,99918.34
2019-03-06T23:26:04.369Z,99902.50
2019-03-06T23:28:34.594Z,99902.52
2019-03-06T23:31:04.820Z,99901.67
2019-03-06T23:33:35.053Z,99914.12
2019-03-06T23:36:05.320Z,99906.80
2019-03-06T23:38:36.285Z,99901.66
2019-03-06T23:41:07.055Z,99906.83
2019-03-06T23:43:37.788Z,99894.32
2019-03-06T23:46:08.438Z,99886.61
2019-03-06T23:48:38.715Z,99881.38
2019-03-06T23:51:11.493Z,99881.80
2019-03-06T23:53:46.543Z,99873.63
2019-03-06T23:56:17.172Z,99862.02
2019-03-06T23:58:47.513Z,99863.30
